Taft, Tennessee
Current Conditions -  °F | °C
As of 8:35 AM on Sunday 23 Nov 2014 (Local Time) from KFYM Reporting Station
Overcast Overcast  
Wind Chill: 12°   Ceiling: 1400
Heat Index: 12°   Visibility: 5mi
Dew Point: 11°   Wind: 16mph
Humidity: 94%   Direction: 360°N
Pressure: 29.87"   Gusts: NA
Location:  35.02°N, 86.72°W
Report Text: KFYM 231435Z AUTO 36014KT 5SM OVC014 12/11 A2987 RMK
Loading
Personal Weather Stations






























Interactive Weather Map New forecast layout! Learn more

10-Day Weather Forecast

Advertisements
Track Severe Weather on mobile